Time;durP1;ratioP1;P1;durP2;ratioP2;P2;SDS_P1;SDS_P2;PMS_P1;PMS_P2;Temp;Humidity;BMP_temperature;BMP_pressure;BME280_temperature;BME280_humidity;BME280_pressure;Samples;Min_cycle;Max_cycle;Signal;HPM_P1;HPM_P2
2022/06/20 00:00:27;;;;;;;;;12.50;10.00;;;;;25.80;38.09;98641.50;5028070;28;45309;-75
2022/06/20 00:02:55;;;;;;;;;12.75;11.25;;;;;25.73;39.43;98663.75;5016441;28;45360;-75
2022/06/20 00:05:33;;;;;;;;;8.75;7.25;;;;;25.66;38.46;98661.88;5005655;28;45413;-75
2022/06/20 00:07:59;;;;;;;;;10.00;10.00;;;;;25.64;39.00;98651.25;4996922;28;47539;-75
2022/06/20 00:10:28;;;;;;;;;9.50;8.50;;;;;25.60;38.39;98674.19;5024920;28;45414;-81
2022/06/20 00:12:55;;;;;;;;;10.25;9.25;;;;;25.61;38.52;98658.84;5024226;28;45434;-81
2022/06/20 00:15:31;;;;;;;;;10.00;10.00;;;;;25.59;38.77;98664.41;5005171;28;45496;-81
2022/06/20 00:17:58;;;;;;;;;10.25;8.75;;;;;25.59;38.25;98666.25;5015423;28;47714;-81
2022/06/20 00:20:25;;;;;;;;;12.25;10.00;;;;;25.60;38.74;98667.94;5020472;28;45520;-81
2022/06/20 00:22:50;;;;;;;;;10.50;9.00;;;;;25.58;38.90;98675.34;5017925;28;45492;-81
2022/06/20 00:25:16;;;;;;;;;9.25;9.00;;;;;25.54;39.07;98679.41;5017149;28;45263;-81
2022/06/20 00:27:42;;;;;;;;;11.25;9.25;;;;;25.49;39.27;98663.69;5019528;28;46371;-81
2022/06/20 00:30:11;;;;;;;;;10.60;8.80;;;;;25.47;38.88;98657.63;5027285;28;45497;-81
2022/06/20 00:32:37;;;;;;;;;10.00;10.00;;;;;25.41;39.40;98655.59;5019962;28;45708;-75
2022/06/20 00:35:03;;;;;;;;;6.75;6.25;;;;;25.37;39.67;98682.06;5017440;28;45430;-75
2022/06/20 00:37:28;;;;;;;;;11.25;8.25;;;;;25.35;39.45;98662.50;5014143;28;47554;-75
2022/06/20 00:39:54;;;;;;;;;10.75;10.25;;;;;25.32;39.59;98660.13;5018247;28;45484;-75
2022/06/20 00:42:19;;;;;;;;;12.00;11.25;;;;;25.34;39.12;98678.84;5007407;28;45316;-75
2022/06/20 00:44:50;;;;;;;;;7.50;6.25;;;;;25.36;39.34;98666.88;5024523;28;45508;-75
2022/06/20 00:47:19;;;;;;;;;10.75;10.50;;;;;25.36;39.04;98675.00;5011273;28;45867;-75
2022/06/20 00:50:02;;;;;;;;;9.00;8.75;;;;;25.38;38.62;98677.53;5018911;28;45399;-75
2022/06/20 00:52:46;;;;;;;;;13.00;11.00;;;;;25.40;39.25;98678.19;5012395;28;45420;-75
2022/06/20 00:55:37;;;;;;;;;11.75;11.00;;;;;25.34;40.20;98685.09;5029168;28;45487;-75
2022/06/20 00:58:10;;;;;;;;;12.25;9.25;;;;;25.29;39.42;98683.94;5022829;28;45473;-81
2022/06/20 01:00:38;;;;;;;;;12.25;10.00;;;;;25.25;40.21;98678.00;4998084;28;45276;-81
2022/06/20 01:03:30;;;;;;;;;10.00;9.75;;;;;25.21;39.91;98668.53;4997589;28;45428;-80
2022/06/20 01:06:01;;;;;;;;;7.50;7.50;;;;;25.20;39.18;98658.75;5016328;28;45351;-80
2022/06/20 01:08:40;;;;;;;;;8.50;8.50;;;;;25.24;39.08;98665.53;5012660;28;45598;-80
2022/06/20 01:11:16;;;;;;;;;10.50;9.75;;;;;25.33;39.33;98660.97;5023264;28;45394;-81
2022/06/20 01:13:42;;;;;;;;;7.50;7.50;;;;;25.37;38.83;98690.16;5031602;28;45366;-80
2022/06/20 01:16:13;;;;;;;;;9.75;9.75;;;;;25.42;39.05;98683.44;5023648;28;45601;-81
2022/06/20 01:18:42;;;;;;;;;10.75;10.00;;;;;25.39;39.18;98687.31;5019978;28;46198;-81
2022/06/20 01:21:16;;;;;;;;;11.25;9.00;;;;;25.35;39.58;98684.09;5019453;28;45414;-81
2022/06/20 01:23:42;;;;;;;;;9.75;9.75;;;;;25.36;38.78;98680.38;5018151;28;45346;-75
2022/06/20 01:26:31;;;;;;;;;13.00;10.25;;;;;25.41;38.30;98676.34;5016700;28;45379;-75
2022/06/20 01:29:07;;;;;;;;;10.00;10.00;;;;;25.51;38.44;98685.13;5013827;28;46625;-75
2022/06/20 01:31:39;;;;;;;;;10.25;8.75;;;;;25.60;37.98;98667.94;5005854;28;45537;-75
2022/06/20 01:34:05;;;;;;;;;10.25;9.00;;;;;25.66;37.63;98683.47;5016717;28;45486;-75
2022/06/20 01:39:21;;;;;;;;;9.00;8.00;;;;;25.88;37.36;98676.56;5013315;28;45944;-75
2022/06/20 01:44:37;;;;;;;;;15.50;14.00;;;;;26.00;36.96;98683.31;5015485;28;45328;-75
2022/06/20 01:47:03;;;;;;;;;10.50;9.50;;;;;26.06;36.56;98680.78;5009062;28;45519;-75
2022/06/20 01:49:30;;;;;;;;;9.75;9.75;;;;;26.16;36.54;98677.06;5015811;28;45569;-75
2022/06/20 01:52:18;;;;;;;;;13.00;11.50;;;;;26.24;36.11;98668.94;5013224;28;45390;-76
2022/06/20 01:54:48;;;;;;;;;11.50;9.75;;;;;26.26;36.61;98658.81;5014354;28;45484;-75
2022/06/20 01:57:15;;;;;;;;;10.75;9.50;;;;;26.24;36.92;98682.47;5012423;28;45532;-75
2022/06/20 01:59:50;;;;;;;;;10.00;9.00;;;;;26.14;37.21;98679.09;5004897;28;46452;-75
2022/06/20 02:02:15;;;;;;;;;10.75;10.25;;;;;26.03;37.71;98681.13;5001799;28;45392;-74
2022/06/20 02:04:42;;;;;;;;;10.00;7.25;;;;;25.89;37.19;98673.72;5027606;28;45410;-75
2022/06/20 02:07:11;;;;;;;;;11.75;10.50;;;;;25.73;37.79;98676.41;5015200;28;45362;-75
2022/06/20 02:09:39;;;;;;;;;11.00;10.75;;;;;25.62;38.38;98687.56;5002897;28;46928;-75
2022/06/20 02:12:07;;;;;;;;;10.00;8.75;;;;;25.56;38.28;98677.38;5019273;28;45181;-75
2022/06/20 02:14:48;;;;;;;;;7.25;7.00;;;;;25.53;38.66;98661.50;5017137;28;45433;-75
2022/06/20 02:17:20;;;;;;;;;13.50;11.75;;;;;25.48;38.10;98666.56;5015660;28;45723;-75
2022/06/20 02:19:50;;;;;;;;;11.00;11.00;;;;;25.51;38.51;98677.88;5023203;28;45651;-75
2022/06/20 02:22:18;;;;;;;;;5.75;5.75;;;;;25.52;37.95;98671.47;5021760;28;45408;-75
2022/06/20 02:24:48;;;;;;;;;11.25;9.50;;;;;25.60;37.68;98681.44;4996704;28;45354;-75
2022/06/20 02:27:35;;;;;;;;;12.50;11.50;;;;;25.67;38.02;98686.00;5017142;28;45212;-75
2022/06/20 02:30:04;;;;;;;;;11.75;10.50;;;;;25.66;37.70;98686.19;5019371;28;46248;-75
2022/06/20 02:32:35;;;;;;;;;10.00;9.25;;;;;25.59;38.46;98677.91;5020161;28;45428;-75
2022/06/20 02:35:04;;;;;;;;;11.00;9.50;;;;;25.48;38.63;98671.94;5007019;28;45302;-82
2022/06/20 02:37:29;;;;;;;;;11.00;9.25;;;;;25.40;38.44;98672.81;5024377;28;45448;-81
2022/06/20 02:40:00;;;;;;;;;9.75;9.00;;;;;25.33;38.93;98664.50;5025254;28;45494;-82
2022/06/20 02:42:34;;;;;;;;;11.25;9.25;;;;;25.27;38.83;98667.06;5021080;28;45484;-81
2022/06/20 02:45:01;;;;;;;;;11.50;10.25;;;;;25.21;39.11;98675.78;5026681;28;45466;-75
2022/06/20 02:47:28;;;;;;;;;10.75;8.50;;;;;25.10;39.67;98676.97;5017588;28;45300;-76
2022/06/20 02:49:57;;;;;;;;;10.25;9.75;;;;;24.93;39.65;98683.28;5024269;28;46198;-75
2022/06/20 02:52:30;;;;;;;;;8.40;8.40;;;;;24.82;40.18;98668.22;5014480;28;45891;-81
2022/06/20 02:54:56;;;;;;;;;10.75;9.25;;;;;24.68;40.18;98666.13;5028378;28;45208;-81
2022/06/20 02:57:45;;;;;;;;;11.00;11.00;;;;;24.55;40.26;98671.97;5018077;28;45434;-81
2022/06/20 03:00:33;;;;;;;;;11.25;10.25;;;;;24.46;40.79;98680.19;5017327;28;46284;-81
2022/06/20 03:03:24;;;;;;;;;10.75;9.75;;;;;24.43;40.94;98680.50;5012888;28;45463;-75
2022/06/20 03:05:49;;;;;;;;;9.00;8.50;;;;;24.41;40.26;98680.66;5017808;28;45323;-75
2022/06/20 03:08:16;;;;;;;;;10.50;9.00;;;;;24.35;40.22;98674.06;5016877;28;45348;-75
2022/06/20 03:10:45;;;;;;;;;11.00;10.00;;;;;24.32;40.66;98689.69;5006371;28;46218;-75
2022/06/20 03:13:12;;;;;;;;;10.50;10.50;;;;;24.21;41.80;98680.00;5015439;28;46202;-75
2022/06/20 03:15:40;;;;;;;;;8.00;7.00;;;;;24.11;42.24;98675.72;5016639;28;45336;-76
2022/06/20 03:18:06;;;;;;;;;9.50;9.50;;;;;23.96;41.58;98680.84;5020081;28;45418;-74
2022/06/20 03:20:34;;;;;;;;;10.00;10.00;;;;;23.87;42.02;98701.47;5017971;28;45354;-75
2022/06/20 03:23:27;;;;;;;;;9.50;8.00;;;;;23.81;41.84;98680.53;5019963;28;45493;-75
2022/06/20 03:25:55;;;;;;;;;10.00;9.75;;;;;23.77;41.73;98675.66;5022119;28;45602;-74
2022/06/20 03:28:22;;;;;;;;;9.75;9.75;;;;;23.79;41.63;98671.81;5018894;28;45480;-75
2022/06/20 03:30:49;;;;;;;;;10.00;10.00;;;;;23.82;42.26;98684.94;5019883;28;45540;-75
2022/06/20 03:33:16;;;;;;;;;10.50;9.75;;;;;23.80;41.34;98678.84;5017178;28;45561;-75
2022/06/20 03:35:48;;;;;;;;;10.00;9.00;;;;;23.82;41.75;98690.31;5015282;28;45521;-75
2022/06/20 03:38:15;;;;;;;;;8.00;7.00;;;;;23.81;41.82;98694.00;5016923;28;45504;-75
2022/06/20 03:40:42;;;;;;;;;7.00;6.50;;;;;23.73;41.78;98677.78;5011077;28;46602;-75
2022/06/20 03:43:11;;;;;;;;;7.00;7.00;;;;;23.72;41.42;98692.25;5003148;28;45371;-75
2022/06/20 03:45:41;;;;;;;;;10.00;10.00;;;;;23.71;41.48;98690.56;5017956;28;45443;-75
2022/06/20 03:48:38;;;;;;;;;8.25;7.25;;;;;23.69;41.45;98700.63;5023185;28;45337;-75
2022/06/20 03:51:10;;;;;;;;;10.25;10.00;;;;;23.68;41.88;98701.63;4989832;28;46606;-74
2022/06/20 03:53:43;;;;;;;;;6.75;6.75;;;;;23.61;42.00;98697.88;5013814;28;45390;-75
2022/06/20 03:56:21;;;;;;;;;10.25;10.25;;;;;23.53;41.50;98711.25;4979701;28;45394;-74
2022/06/20 03:58:46;;;;;;;;;11.50;11.00;;;;;23.49;42.05;98705.28;5006776;28;45339;-75
2022/06/20 04:01:18;;;;;;;;;10.00;8.50;;;;;23.40;42.16;98700.84;5022212;28;46463;-75
2022/06/20 04:03:51;;;;;;;;;10.75;9.00;;;;;23.38;42.43;98701.97;4997610;28;45537;-75
2022/06/20 04:06:30;;;;;;;;;9.25;9.25;;;;;23.35;41.90;98716.56;5012529;28;45521;-75
2022/06/20 04:12:08;;;;;;;;;9.50;9.25;;;;;23.20;42.45;98718.94;5008486;28;45440;-76
2022/06/20 04:14:46;;;;;;;;;7.75;7.75;;;;;23.17;42.62;98713.00;5017246;28;45477;-74
2022/06/20 04:20:38;;;;;;;;;7.50;7.00;;;;;23.09;43.48;98723.69;5020097;28;45496;-81
2022/06/20 04:23:22;;;;;;;;;8.00;7.00;;;;;23.06;43.73;98729.38;5013920;28;45651;-81
2022/06/20 04:25:58;;;;;;;;;8.75;7.25;;;;;23.03;42.89;98738.56;5013914;28;45561;-56
2022/06/20 04:28:46;;;;;;;;;9.00;9.00;;;;;23.05;43.12;98739.28;5016275;28;45404;-56
2022/06/20 04:31:18;;;;;;;;;12.00;11.00;;;;;23.04;43.33;98726.81;5000101;28;45488;-55
2022/06/20 04:33:48;;;;;;;;;9.50;9.50;;;;;23.05;43.01;98744.66;4997322;28;45778;-57
2022/06/20 04:36:36;;;;;;;;;9.25;8.75;;;;;23.07;43.44;98731.91;5004592;28;45438;-59
2022/06/20 04:39:37;;;;;;;;;9.50;9.25;;;;;23.04;43.08;98726.81;5007244;28;45399;-58
2022/06/20 04:42:18;;;;;;;;;10.25;10.25;;;;;23.04;43.32;98734.03;5007287;28;45354;-59
2022/06/20 04:44:47;;;;;;;;;10.25;9.50;;;;;23.07;43.00;98733.75;5003723;28;45449;-58
2022/06/20 04:47:15;;;;;;;;;8.25;7.00;;;;;23.11;42.95;98737.84;5009800;28;45551;-58
2022/06/20 04:49:40;;;;;;;;;11.00;9.00;;;;;23.13;43.32;98736.66;5003052;28;45429;-58
2022/06/20 04:52:13;;;;;;;;;5.00;4.00;;;;;23.14;43.04;98737.50;4995310;28;45400;-57
2022/06/20 04:54:42;;;;;;;;;11.00;10.00;;;;;23.17;43.14;98745.28;5026070;28;45492;-57
2022/06/20 04:57:10;;;;;;;;;9.00;9.00;;;;;23.21;42.97;98734.09;5019841;28;45355;-64
2022/06/20 04:59:37;;;;;;;;;10.00;9.25;;;;;23.25;42.33;98740.88;4999241;28;45454;-54
2022/06/20 05:02:11;;;;;;;;;9.25;9.25;;;;;23.27;42.76;98733.50;5012779;28;45609;-56
2022/06/20 05:04:41;;;;;;;;;8.75;8.75;;;;;23.30;42.98;98737.69;5000565;28;45507;-55
2022/06/20 05:07:12;;;;;;;;;8.00;8.00;;;;;23.32;42.86;98725.78;5006890;28;45604;-54
2022/06/20 05:09:58;;;;;;;;;9.00;9.00;;;;;23.35;42.49;98732.72;5011613;28;45466;-57
2022/06/20 05:12:36;;;;;;;;;11.25;9.00;;;;;23.37;42.42;98735.25;5008723;28;45404;-57
2022/06/20 05:15:15;;;;;;;;;9.00;8.75;;;;;23.35;42.86;98737.25;5020125;28;46060;-59
2022/06/20 05:17:43;;;;;;;;;9.50;9.25;;;;;23.31;42.92;98729.47;5016011;28;45436;-64
2022/06/20 05:20:34;;;;;;;;;10.75;10.75;;;;;23.30;43.02;98743.06;5003722;28;45486;-58
2022/06/20 05:23:13;;;;;;;;;12.00;9.50;;;;;23.29;43.31;98742.22;5018848;28;45296;-58
2022/06/20 05:25:41;;;;;;;;;11.00;10.25;;;;;23.25;43.94;98735.47;5015889;28;46571;-59
2022/06/20 05:28:14;;;;;;;;;12.00;11.00;;;;;23.18;43.24;98746.97;5013850;28;45480;-59
2022/06/20 05:30:41;;;;;;;;;10.50;10.50;;;;;23.16;44.08;98732.84;5008746;28;45306;-59
2022/06/20 05:33:22;;;;;;;;;10.50;10.50;;;;;23.11;43.66;98752.13;5005520;28;45387;-59
2022/06/20 05:35:53;;;;;;;;;8.00;8.00;;;;;23.13;43.59;98743.88;5010388;28;45847;-59
2022/06/20 05:38:38;;;;;;;;;11.00;9.50;;;;;23.13;43.53;98750.09;5012574;28;45383;-59
2022/06/20 05:41:07;;;;;;;;;9.00;9.00;;;;;23.15;43.56;98744.59;5014063;28;45405;-59
2022/06/20 05:43:34;;;;;;;;;11.50;8.50;;;;;23.16;43.71;98757.88;5019274;28;45495;-59
2022/06/20 05:46:06;;;;;;;;;11.00;11.00;;;;;23.19;44.33;98762.13;5010493;28;48337;-59
2022/06/20 05:48:40;;;;;;;;;11.00;9.00;;;;;23.24;44.02;98774.13;5010914;28;45423;-59
2022/06/20 05:51:08;;;;;;;;;3.25;3.00;;;;;23.27;44.18;98773.00;5012616;28;45552;-59
2022/06/20 05:53:39;;;;;;;;;9.00;9.00;;;;;23.25;44.30;98777.69;4996149;28;45754;-59
2022/06/20 05:56:26;;;;;;;;;10.50;10.00;;;;;23.26;44.50;98782.91;5009158;28;45554;-59
2022/06/20 05:58:54;;;;;;;;;8.20;8.20;;;;;23.29;44.30;98776.38;4992243;28;45450;-59
2022/06/20 06:59:34;;;;;;;;;10.75;10.50;;;;;24.70;40.93;98815.94;5174131;23;46215;-52
2022/06/20 07:02:02;;;;;;;;;9.25;9.25;;;;;24.79;40.83;98805.25;4820879;29;45474;-53
2022/06/20 07:04:44;;;;;;;;;12.50;9.75;;;;;24.87;40.65;98814.22;4821364;29;45743;-59
2022/06/20 07:07:22;;;;;;;;;12.50;11.00;;;;;24.96;40.57;98813.31;4821281;29;45452;-60
2022/06/20 07:09:50;;;;;;;;;10.50;9.25;;;;;25.02;40.54;98811.78;4818882;29;47590;-60
2022/06/20 07:12:41;;;;;;;;;7.00;6.00;;;;;25.10;40.13;98811.84;4821638;29;45641;-59
2022/06/20 07:15:17;;;;;;;;;11.75;10.00;;;;;25.15;40.15;98808.66;4823373;29;45449;-59
2022/06/20 07:18:11;;;;;;;;;12.25;9.75;;;;;25.20;40.72;98806.31;4823573;29;45512;-59
2022/06/20 07:20:40;;;;;;;;;11.75;8.00;;;;;25.25;40.54;98812.94;4823488;29;45383;-59
2022/06/20 07:23:11;;;;;;;;;10.50;10.50;;;;;25.33;39.91;98801.31;4823153;29;45537;-59
2022/06/20 07:25:41;;;;;;;;;9.00;8.75;;;;;25.42;40.00;98807.59;4824338;29;45502;-59
2022/06/20 07:28:12;;;;;;;;;10.75;8.00;;;;;25.49;40.08;98803.22;4823641;29;45509;-59
2022/06/20 07:30:45;;;;;;;;;10.75;9.50;;;;;25.56;39.83;98802.41;4824435;29;45584;-60
2022/06/20 07:33:21;;;;;;;;;9.60;8.00;;;;;25.64;39.51;98805.16;4822053;29;45517;-59
2022/06/20 07:35:51;;;;;;;;;11.00;9.75;;;;;25.75;38.86;98795.06;4826014;29;45553;-58
2022/06/20 07:38:21;;;;;;;;;9.75;9.75;;;;;25.82;38.89;98796.94;4822958;29;45523;-59
2022/06/20 07:40:57;;;;;;;;;9.75;8.75;;;;;25.90;38.94;98798.81;4822345;29;46563;-58
2022/06/20 07:43:25;;;;;;;;;11.60;11.60;;;;;25.98;39.00;98790.69;4822763;29;45450;-59
2022/06/20 07:45:53;;;;;;;;;11.00;10.00;;;;;26.07;38.85;98787.00;4821887;29;45525;-59
2022/06/20 07:48:35;;;;;;;;;10.50;10.00;;;;;26.17;38.22;98789.53;4818627;29;45587;-59
2022/06/20 07:51:12;;;;;;;;;10.50;9.75;;;;;26.25;38.06;98789.56;4820275;29;45482;-59
2022/06/20 07:54:09;;;;;;;;;9.25;9.25;;;;;26.34;38.21;98777.75;4820583;29;45413;-59
2022/06/20 07:56:50;;;;;;;;;11.00;10.25;;;;;26.43;38.00;98779.44;4804229;29;45522;-58
2022/06/20 07:59:42;;;;;;;;;6.00;6.00;;;;;26.49;37.90;98776.03;4819392;29;45586;-59
2022/06/20 08:02:16;;;;;;;;;11.50;11.50;;;;;26.58;37.75;98780.44;4816868;29;45876;-59
2022/06/20 08:04:45;;;;;;;;;13.25;12.00;;;;;26.69;38.03;98781.94;4823380;29;45522;-59
2022/06/20 08:07:26;;;;;;;;;10.50;10.50;;;;;26.77;37.79;98785.47;4823085;29;45438;-59
2022/06/20 08:09:55;;;;;;;;;11.25;11.25;;;;;26.87;37.80;98789.84;4820124;29;45482;-59
2022/06/20 08:12:38;;;;;;;;;7.75;7.75;;;;;26.95;36.53;98793.41;4821122;29;45558;-59
2022/06/20 08:15:31;;;;;;;;;12.50;9.25;;;;;26.99;36.78;98788.47;4821521;29;45546;-61
2022/06/20 08:17:58;;;;;;;;;13.50;11.25;;;;;27.03;36.57;98787.13;4800708;29;45327;-60
2022/06/20 08:20:30;;;;;;;;;12.50;11.50;;;;;27.10;36.40;98807.91;4821994;29;45600;-60
2022/06/20 08:23:15;;;;;;;;;7.50;7.50;;;;;27.18;35.92;98788.06;4820074;29;46650;-61
2022/06/20 08:25:49;;;;;;;;;10.50;10.50;;;;;27.26;35.65;98785.34;4819831;29;45377;-61
2022/06/20 08:28:21;;;;;;;;;9.50;8.25;;;;;27.30;35.38;98796.69;4806163;29;45391;-61
2022/06/20 08:30:54;;;;;;;;;9.50;8.75;;;;;27.32;34.72;98795.44;4808181;29;45578;-61
2022/06/20 08:33:21;;;;;;;;;11.75;10.00;;;;;27.33;35.47;98788.19;4816306;29;45798;-60
2022/06/20 08:35:57;;;;;;;;;11.25;11.25;;;;;27.34;35.37;98777.16;4817137;29;45586;-60
2022/06/20 08:38:45;;;;;;;;;10.25;10.00;;;;;27.38;35.90;98777.66;4820399;29;45528;-60
2022/06/20 08:41:21;;;;;;;;;8.25;8.25;;;;;27.43;35.68;98786.97;4819600;29;45433;-60
2022/06/20 08:43:59;;;;;;;;;9.25;9.25;;;;;27.51;35.35;98777.94;4822337;29;45539;-60
2022/06/20 08:46:30;;;;;;;;;12.25;11.75;;;;;27.53;35.14;98811.09;4820877;29;45426;-60
2022/06/20 08:49:23;;;;;;;;;11.50;10.75;;;;;27.47;34.97;98781.19;4821422;29;45515;-60
2022/06/20 08:52:07;;;;;;;;;11.00;9.75;;;;;27.48;35.19;98782.88;4815348;29;45432;-62
2022/06/20 08:55:05;;;;;;;;;11.00;9.75;;;;;27.50;35.41;98792.50;4821062;29;47451;-60
2022/06/20 08:57:48;;;;;;;;;11.75;11.25;;;;;27.52;35.03;98797.72;4798953;29;45529;-60
2022/06/20 09:00:31;;;;;;;;;10.00;9.75;;;;;27.51;35.35;98807.72;4819898;29;45372;-60
2022/06/20 09:03:16;;;;;;;;;10.00;9.00;;;;;27.54;35.25;98804.66;4820567;29;45663;-60
2022/06/20 09:05:44;;;;;;;;;7.25;7.25;;;;;27.60;35.22;98798.59;4820324;29;47327;-60
2022/06/20 09:08:31;;;;;;;;;9.50;9.50;;;;;27.68;34.55;98797.69;4820728;29;45518;-60
2022/06/20 09:11:14;;;;;;;;;7.25;7.25;;;;;27.72;34.51;98771.94;4822243;29;45535;-60
2022/06/20 09:14:13;;;;;;;;;11.25;10.75;;;;;27.77;34.26;98780.38;4820051;29;45622;-61
2022/06/20 09:16:59;;;;;;;;;11.00;11.00;;;;;27.80;34.43;98774.59;4816708;29;46267;-60
2022/06/20 09:19:42;;;;;;;;;11.00;10.25;;;;;27.86;34.59;98770.31;4818763;29;45436;-61
2022/06/20 09:22:35;;;;;;;;;10.00;9.00;;;;;27.92;34.31;98770.44;4820452;29;45488;-61
2022/06/20 09:25:09;;;;;;;;;10.50;9.25;;;;;28.04;34.38;98757.31;4822635;29;45440;-61
2022/06/20 09:28:24;;;;;;;;;8.50;8.00;;;;;28.16;33.90;98766.69;4803671;29;45656;-61
2022/06/20 09:31:24;;;;;;;;;10.25;7.75;;;;;28.24;33.18;98772.09;4792310;29;45518;-60
2022/06/20 09:33:52;;;;;;;;;8.00;7.50;;;;;28.32;33.19;98780.13;4817320;29;45457;-59
2022/06/20 09:36:18;;;;;;;;;9.25;9.25;;;;;28.33;33.20;98770.13;4821020;29;45823;-59
2022/06/20 09:38:52;;;;;;;;;8.75;8.75;;;;;28.39;32.95;98775.69;4809019;29;45620;-59
2022/06/20 09:41:20;;;;;;;;;13.25;11.00;;;;;28.44;33.29;98778.69;4822097;29;45499;-61
2022/06/20 09:44:08;;;;;;;;;9.25;8.75;;;;;28.49;32.63;98764.56;4823628;29;45411;-61
2022/06/20 09:46:46;;;;;;;;;12.75;10.50;;;;;28.54;32.78;98755.88;4821146;29;45582;-61
2022/06/20 09:49:27;;;;;;;;;11.00;11.00;;;;;28.60;32.91;98756.00;4798484;29;45863;-62
2022/06/20 09:52:04;;;;;;;;;10.25;9.50;;;;;28.68;32.74;98755.03;4820481;29;45499;-61
2022/06/20 09:54:30;;;;;;;;;7.50;7.50;;;;;28.72;32.73;98775.34;4821821;29;45458;-62
2022/06/20 09:57:12;;;;;;;;;8.50;8.25;;;;;28.76;32.81;98782.97;4821038;29;45502;-62
2022/06/20 09:59:50;;;;;;;;;9.75;9.00;;;;;28.78;32.85;98763.78;4800784;29;45821;-61
2022/06/20 10:02:25;;;;;;;;;10.00;9.60;;;;;28.81;33.08;98756.16;4817291;29;45489;-61
2022/06/20 10:05:04;;;;;;;;;12.00;12.00;;;;;28.87;32.88;98772.69;4815124;29;45540;-61
2022/06/20 10:07:57;;;;;;;;;9.50;9.50;;;;;28.91;33.18;98765.88;4816516;29;45462;-61
2022/06/20 10:10:38;;;;;;;;;10.50;10.25;;;;;28.93;32.71;98755.66;4815613;29;45674;-61
2022/06/20 10:13:22;;;;;;;;;10.00;8.75;;;;;28.94;32.86;98755.47;4824321;29;45486;-61
2022/06/20 10:16:22;;;;;;;;;11.25;11.25;;;;;28.98;32.49;98748.66;4820064;29;45421;-61
2022/06/20 10:19:08;;;;;;;;;10.50;10.00;;;;;29.07;32.81;98765.69;4793854;29;45443;-61
2022/06/20 10:21:33;;;;;;;;;12.75;11.00;;;;;29.11;32.35;98765.13;4824873;29;45659;-61
2022/06/20 10:24:01;;;;;;;;;11.75;10.00;;;;;29.09;32.75;98734.59;4824724;29;45516;-61
2022/06/20 10:26:54;;;;;;;;;10.25;10.25;;;;;29.14;32.29;98734.88;4825115;29;45398;-61
2022/06/20 10:29:22;;;;;;;;;11.25;9.75;;;;;29.20;32.16;98735.13;4822324;29;45400;-61
2022/06/20 10:32:06;;;;;;;;;10.25;10.25;;;;;29.24;32.42;98726.44;4824703;29;46524;-61
2022/06/20 10:34:44;;;;;;;;;11.00;9.00;;;;;29.28;32.42;98716.88;4823518;29;45469;-61
2022/06/20 10:37:10;;;;;;;;;9.50;9.50;;;;;29.37;31.79;98742.03;4825400;29;45443;-61
2022/06/20 10:39:45;;;;;;;;;11.50;11.25;;;;;29.43;32.51;98714.16;4824781;29;45497;-61
2022/06/20 10:42:13;;;;;;;;;10.50;10.50;;;;;29.49;32.01;98763.09;4824742;29;46221;-61
2022/06/20 10:45:10;;;;;;;;;9.00;9.00;;;;;29.48;32.29;98741.59;4824958;29;45497;-61
2022/06/20 10:48:03;;;;;;;;;11.00;11.00;;;;;29.50;32.61;98704.19;4823890;29;45750;-61
2022/06/20 10:50:46;;;;;;;;;8.75;8.75;;;;;29.56;32.69;98700.72;4822192;29;45413;-61
2022/06/20 10:53:15;;;;;;;;;11.50;9.25;;;;;29.66;32.38;98727.59;4810707;29;47608;-61
2022/06/20 10:56:04;;;;;;;;;9.75;9.25;;;;;29.72;32.20;98703.19;4816994;29;45511;-61
2022/06/20 10:58:45;;;;;;;;;12.75;12.00;;;;;29.81;32.30;98706.63;4824339;29;45490;-61
2022/06/20 11:01:24;;;;;;;;;9.00;9.00;;;;;29.91;31.84;98698.13;4807327;29;45481;-63
2022/06/20 11:04:37;;;;;;;;;11.25;10.50;;;;;29.96;31.82;98714.72;4806044;29;45571;-61
2022/06/20 11:07:28;;;;;;;;;11.25;10.50;;;;;29.95;31.45;98692.13;4803467;29;45430;-63
2022/06/20 11:10:01;;;;;;;;;13.00;8.25;;;;;29.97;31.50;98698.25;4824730;29;45506;-61
2022/06/20 11:12:51;;;;;;;;;8.75;8.75;;;;;30.02;31.87;98684.88;4824988;29;45416;-61
2022/06/20 11:15:41;;;;;;;;;8.25;8.25;;;;;30.10;31.90;98687.47;4824914;29;45543;-61
2022/06/20 11:18:37;;;;;;;;;9.25;8.00;;;;;30.14;31.55;98677.03;4824123;29;45363;-61
2022/06/20 11:21:39;;;;;;;;;11.75;9.75;;;;;30.22;31.29;98686.91;4825151;29;45530;-63
2022/06/20 11:24:49;;;;;;;;;9.75;9.50;;;;;30.29;31.77;98674.22;4807627;29;45416;-63
2022/06/20 11:27:41;;;;;;;;;8.25;8.25;;;;;30.36;30.90;98684.09;4824951;29;45444;-63
2022/06/20 11:30:07;;;;;;;;;11.00;10.25;;;;;30.42;31.05;98663.44;4818262;29;45532;-63
2022/06/20 11:32:38;;;;;;;;;12.00;10.50;;;;;30.44;31.16;98707.59;4824347;29;45450;-61
2022/06/20 11:35:52;;;;;;;;;9.75;9.75;;;;;30.48;30.59;98659.94;4824127;29;45389;-62
2022/06/20 11:38:45;;;;;;;;;10.00;9.00;;;;;30.56;31.24;98675.25;4768049;29;45483;-63
2022/06/20 11:41:16;;;;;;;;;13.75;13.75;;;;;30.60;30.72;98674.66;4823204;29;45348;-63
2022/06/20 11:44:12;;;;;;;;;10.00;10.00;;;;;30.62;30.67;98667.16;4823646;29;45565;-62
2022/06/20 11:47:05;;;;;;;;;12.00;10.25;;;;;30.69;31.05;98694.38;4824380;29;45466;-61
2022/06/20 11:49:40;;;;;;;;;10.00;9.25;;;;;30.68;31.11;98657.31;4824501;29;46295;-62
2022/06/20 11:52:23;;;;;;;;;9.25;9.25;;;;;30.77;30.74;98661.56;4824492;29;45529;-62
2022/06/20 11:55:04;;;;;;;;;10.50;9.25;;;;;30.81;30.27;98662.88;4824516;29;45487;-62
2022/06/20 11:57:42;;;;;;;;;9.00;9.00;;;;;30.85;30.39;98675.00;4823985;29;45357;-62
2022/06/20 12:00:20;;;;;;;;;6.00;6.00;;;;;30.87;29.87;98648.41;4818429;29;46611;-61
2022/06/20 12:03:07;;;;;;;;;9.50;8.75;;;;;30.95;30.58;98663.75;4821443;29;45877;-61
2022/06/20 12:05:42;;;;;;;;;8.75;7.75;;;;;31.07;30.69;98653.97;4818647;29;45445;-62
2022/06/20 12:08:23;;;;;;;;;12.25;10.75;;;;;31.10;29.73;98664.44;4821447;29;45467;-62
2022/06/20 12:10:48;;;;;;;;;11.75;9.50;;;;;31.12;29.85;98652.34;4823014;29;45483;-62
2022/06/20 12:13:31;;;;;;;;;11.00;11.00;;;;;31.14;29.64;98642.09;4823121;29;45593;-62
2022/06/20 12:16:02;;;;;;;;;6.50;6.50;;;;;31.16;30.05;98640.00;4822787;29;45443;-62
2022/06/20 12:23:18;;;;;;;;;6.50;6.50;;;;;31.23;29.73;98632.69;4819168;29;45700;-61
2022/06/20 12:24:19;;;;;;;;;11.25;9.75;;;;;31.34;29.50;98639.41;4806703;29;45713;-62
2022/06/20 12:26:45;;;;;;;;;12.00;9.25;;;;;31.39;29.60;98612.38;4823077;29;45435;-62
2022/06/20 12:29:20;;;;;;;;;8.25;8.25;;;;;31.49;29.15;98626.47;4822340;29;45535;-62
2022/06/20 12:31:53;;;;;;;;;11.25;10.75;;;;;31.54;28.80;98625.81;4821452;29;45442;-62
2022/06/20 12:34:42;;;;;;;;;8.50;8.50;;;;;31.57;28.98;98612.63;4822396;29;45374;-61
2022/06/20 12:37:07;;;;;;;;;9.50;8.00;;;;;31.64;28.64;98609.06;4823172;29;45479;-62
2022/06/20 12:39:39;;;;;;;;;7.00;5.00;;;;;31.67;28.85;98611.41;4823864;29;45341;-62
2022/06/20 12:42:04;;;;;;;;;10.00;10.00;;;;;31.72;28.36;98630.69;4822388;29;46058;-61
2022/06/20 12:44:42;;;;;;;;;10.25;9.75;;;;;31.75;28.96;98627.56;4822486;29;45486;-61
2022/06/20 12:47:38;;;;;;;;;11.25;11.25;;;;;31.78;28.81;98613.50;4813728;29;45510;-61
2022/06/20 12:50:24;;;;;;;;;11.00;10.75;;;;;31.85;28.68;98617.91;4793081;29;45596;-61
2022/06/20 12:53:22;;;;;;;;;10.00;9.00;;;;;31.90;28.15;98634.47;4822265;29;46455;-61
2022/06/20 12:55:59;;;;;;;;;10.50;10.50;;;;;31.90;28.53;98622.72;4817742;29;45645;-61
2022/06/20 12:58:44;;;;;;;;;10.25;10.00;;;;;31.95;28.09;98616.66;4832534;29;45383;-61
2022/06/20 13:01:41;;;;;;;;;11.25;9.00;;;;;31.97;28.21;98609.09;4823099;29;45401;-61
2022/06/20 13:04:31;;;;;;;;;13.25;9.25;;;;;32.02;28.39;98596.50;4821980;29;45429;-62
2022/06/20 13:07:21;;;;;;;;;11.00;9.00;;;;;32.07;27.63;98602.16;4814615;29;45504;-61
2022/06/20 13:09:52;;;;;;;;;11.25;11.25;;;;;32.15;27.82;98587.47;4823926;29;45431;-61
2022/06/20 13:12:44;;;;;;;;;13.75;12.00;;;;;32.19;27.81;98603.22;4829963;29;45619;-62
2022/06/20 13:15:34;;;;;;;;;10.50;10.50;;;;;32.25;27.69;98602.38;4814533;29;45567;-62
2022/06/20 13:18:11;;;;;;;;;10.50;10.50;;;;;32.36;27.90;98579.03;4823328;29;45427;-62
2022/06/20 13:20:52;;;;;;;;;8.25;8.25;;;;;32.59;27.87;98582.13;4807014;29;45548;-62